sensor_id;sensor_type;location;lat;lon;timestamp;pressure;altitude;pressure_sealevel;temperature;humidity
43553;BME280;29153;42.696;23.218;2023-09-08T02:13:41;94917.81;;;17.85;87.50
43553;BME280;29153;42.696;23.218;2023-09-08T02:16:15;94919.78;;;17.82;87.56
43553;BME280;29153;42.696;23.218;2023-09-08T02:18:45;94919.41;;;17.86;87.22
43553;BME280;29153;42.696;23.218;2023-09-08T02:21:13;94917.11;;;17.82;88.04
43553;BME280;29153;42.696;23.218;2023-09-08T02:23:40;94904.50;;;17.83;88.26
43553;BME280;29153;42.696;23.218;2023-09-08T02:26:08;94907.56;;;17.79;88.37
43553;BME280;29153;42.696;23.218;2023-09-08T02:28:35;94899.77;;;17.80;88.43
43553;BME280;29153;42.696;23.218;2023-09-08T02:31:03;94906.22;;;17.79;88.61
43553;BME280;29153;42.696;23.218;2023-09-08T02:33:30;94902.61;;;17.83;88.74
43553;BME280;29153;42.696;23.218;2023-09-08T02:36:03;94901.16;;;17.77;89.18
43553;BME280;29153;42.696;23.218;2023-09-08T02:38:31;94900.14;;;17.76;89.57
43553;BME280;29153;42.696;23.218;2023-09-08T02:40:59;94897.27;;;17.72;89.73
43553;BME280;29153;42.696;23.218;2023-09-08T02:43:27;94898.72;;;17.58;90.68
43553;BME280;29153;42.696;23.218;2023-09-08T02:45:54;94898.09;;;17.61;90.96
43553;BME280;29153;42.696;23.218;2023-09-08T02:48:22;94887.69;;;17.49;91.77
43553;BME280;29153;42.696;23.218;2023-09-08T02:50:52;94899.56;;;17.45;92.29
43553;BME280;29153;42.696;23.218;2023-09-08T02:53:20;94894.03;;;17.30;93.38
43553;BME280;29153;42.696;23.218;2023-09-08T02:55:47;94900.23;;;17.40;93.58
43553;BME280;29153;42.696;23.218;2023-09-08T02:58:15;94894.08;;;17.39;93.76
43553;BME280;29153;42.696;23.218;2023-09-08T03:00:42;94898.84;;;17.31;94.57
43553;BME280;29153;42.696;23.218;2023-09-08T03:03:12;94898.17;;;17.25;95.30
43553;BME280;29153;42.696;23.218;2023-09-08T03:05:40;94894.16;;;17.25;95.63
43553;BME280;29153;42.696;23.218;2023-09-08T03:08:07;94894.09;;;17.17;96.29
43553;BME280;29153;42.696;23.218;2023-09-08T03:10:34;94901.95;;;17.13;96.63
43553;BME280;29153;42.696;23.218;2023-09-08T03:13:03;94905.97;;;17.13;96.81
43553;BME280;29153;42.696;23.218;2023-09-08T03:15:31;94902.58;;;17.10;97.10
43553;BME280;29153;42.696;23.218;2023-09-08T03:17:58;94898.67;;;17.05;97.47
43553;BME280;29153;42.696;23.218;2023-09-08T03:20:26;94898.79;;;17.00;97.88
43553;BME280;29153;42.696;23.218;2023-09-08T03:22:55;94900.74;;;16.97;98.19
43553;BME280;29153;42.696;23.218;2023-09-08T03:25:22;94899.05;;;17.01;98.04
43553;BME280;29153;42.696;23.218;2023-09-08T03:27:50;94903.03;;;16.90;98.77
43553;BME280;29153;42.696;23.218;2023-09-08T03:30:17;94904.58;;;16.94;98.77
43553;BME280;29153;42.696;23.218;2023-09-08T03:32:46;94901.34;;;16.83;99.41
43553;BME280;29153;42.696;23.218;2023-09-08T03:35:13;94906.80;;;16.78;99.93
43553;BME280;29153;42.696;23.218;2023-09-08T03:37:41;94903.47;;;16.72;100.00
43553;BME280;29153;42.696;23.218;2023-09-08T03:40:08;94902.53;;;16.66;100.00
43553;BME280;29153;42.696;23.218;2023-09-08T03:42:36;94907.95;;;16.63;100.00
43553;BME280;29153;42.696;23.218;2023-09-08T03:45:04;94912.14;;;16.67;100.00
43553;BME280;29153;42.696;23.218;2023-09-08T03:47:32;94908.53;;;16.60;100.00
43553;BME280;29153;42.696;23.218;2023-09-08T03:49:59;94912.60;;;16.44;100.00
43553;BME280;29153;42.696;23.218;2023-09-08T03:52:27;94916.27;;;16.34;100.00
43553;BME280;29153;42.696;23.218;2023-09-08T03:54:54;94919.02;;;16.32;100.00
43553;BME280;29153;42.696;23.218;2023-09-08T03:57:22;94918.09;;;16.25;100.00
43553;BME280;29153;42.696;23.218;2023-09-08T03:59:49;94923.22;;;16.22;100.00
43553;BME280;29153;42.696;23.218;2023-09-08T04:02:17;94922.45;;;16.21;100.00
43553;BME280;29153;42.696;23.218;2023-09-08T04:04:44;94924.24;;;16.12;100.00
43553;BME280;29153;42.696;23.218;2023-09-08T04:07:12;94928.16;;;16.04;100.00
43553;BME280;29153;42.696;23.218;2023-09-08T04:09:39;94922.16;;;15.82;100.00
43553;BME280;29153;42.696;23.218;2023-09-08T04:12:07;94928.76;;;15.71;100.00
43553;BME280;29153;42.696;23.218;2023-09-08T04:14:36;94928.02;;;15.68;100.00
43553;BME280;29153;42.696;23.218;2023-09-08T04:17:04;94926.12;;;15.55;100.00
43553;BME280;29153;42.696;23.218;2023-09-08T04:19:32;94934.78;;;15.46;100.00
43553;BME280;29153;42.696;23.218;2023-09-08T04:22:00;94926.33;;;15.26;100.00
43553;BME280;29153;42.696;23.218;2023-09-08T04:24:27;94929.15;;;15.16;100.00
43553;BME280;29153;42.696;23.218;2023-09-08T04:26:55;94928.53;;;15.05;100.00
43553;BME280;29153;42.696;23.218;2023-09-08T04:29:22;94924.22;;;15.07;100.00
43553;BME280;29153;42.696;23.218;2023-09-08T04:31:50;94935.28;;;15.00;100.00
43553;BME280;29153;42.696;23.218;2023-09-08T04:34:17;94936.69;;;14.95;100.00
43553;BME280;29153;42.696;23.218;2023-09-08T04:36:45;94938.87;;;14.93;100.00
43553;BME280;29153;42.696;23.218;2023-09-08T04:39:12;94944.20;;;14.93;100.00
43553;BME280;29153;42.696;23.218;2023-09-08T04:41:41;94941.39;;;14.84;100.00
43553;BME280;29153;42.696;23.218;2023-09-08T04:44:09;94938.48;;;14.81;100.00
43553;BME280;29153;42.696;23.218;2023-09-08T04:46:37;94935.05;;;14.80;100.00
43553;BME280;29153;42.696;23.218;2023-09-08T04:49:05;94939.34;;;14.79;100.00
43553;BME280;29153;42.696;23.218;2023-09-08T04:51:32;94939.08;;;14.78;100.00
43553;BME280;29153;42.696;23.218;2023-09-08T04:54:00;94937.48;;;14.77;100.00
43553;BME280;29153;42.696;23.218;2023-09-08T04:56:27;94938.21;;;14.82;100.00
43553;BME280;29153;42.696;23.218;2023-09-08T04:58:55;94939.28;;;14.81;100.00
43553;BME280;29153;42.696;23.218;2023-09-08T05:01:24;94940.27;;;14.88;100.00
43553;BME280;29153;42.696;23.218;2023-09-08T05:03:51;94937.81;;;14.91;100.00
43553;BME280;29153;42.696;23.218;2023-09-08T05:06:19;94931.36;;;15.11;100.00
43553;BME280;29153;42.696;23.218;2023-09-08T05:08:47;94931.36;;;15.11;100.00
43553;BME280;29153;42.696;23.218;2023-09-08T05:11:14;94936.54;;;15.21;100.00
43553;BME280;29153;42.696;23.218;2023-09-08T05:13:42;94942.55;;;15.29;100.00
43553;BME280;29153;42.696;23.218;2023-09-08T05:16:10;94939.13;;;15.26;100.00
43553;BME280;29153;42.696;23.218;2023-09-08T05:18:41;94941.95;;;15.32;100.00
43553;BME280;29153;42.696;23.218;2023-09-08T05:21:09;94939.81;;;15.51;100.00
43553;BME280;29153;42.696;23.218;2023-09-08T05:23:36;94936.55;;;15.54;100.00
43553;BME280;29153;42.696;23.218;2023-09-08T05:26:04;94937.20;;;15.62;100.00
43553;BME280;29153;42.696;23.218;2023-09-08T05:28:31;94942.63;;;15.73;100.00
43553;BME280;29153;42.696;23.218;2023-09-08T05:30:59;94943.47;;;15.84;100.00
43553;BME280;29153;42.696;23.218;2023-09-08T05:33:26;94942.15;;;15.98;100.00
43553;BME280;29153;42.696;23.218;2023-09-08T05:35:54;94949.38;;;16.11;100.00
43553;BME280;29153;42.696;23.218;2023-09-08T05:38:21;94950.02;;;16.19;100.00
43553;BME280;29153;42.696;23.218;2023-09-08T05:40:51;94946.13;;;16.39;100.00
43553;BME280;29153;42.696;23.218;2023-09-08T05:43:18;94951.43;;;16.55;100.00
43553;BME280;29153;42.696;23.218;2023-09-08T05:45:46;94948.37;;;16.73;100.00
43553;BME280;29153;42.696;23.218;2023-09-08T05:48:13;94956.44;;;16.84;100.00
43553;BME280;29153;42.696;23.218;2023-09-08T05:50:41;94955.47;;;16.91;100.00
43553;BME280;29153;42.696;23.218;2023-09-08T05:53:08;94952.69;;;17.07;100.00
43553;BME280;29153;42.696;23.218;2023-09-08T05:55:36;94958.90;;;17.16;100.00
43553;BME280;29153;42.696;23.218;2023-09-08T05:58:03;94958.30;;;17.30;100.00
43553;BME280;29153;42.696;23.218;2023-09-08T06:00:33;94949.41;;;17.44;100.00
43553;BME280;29153;42.696;23.218;2023-09-08T06:03:00;94960.11;;;17.55;100.00
43553;BME280;29153;42.696;23.218;2023-09-08T06:05:28;94951.19;;;17.59;100.00
43553;BME280;29153;42.696;23.218;2023-09-08T06:07:56;94955.92;;;17.73;100.00
43553;BME280;29153;42.696;23.218;2023-09-08T06:10:23;94954.50;;;17.76;98.65
43553;BME280;29153;42.696;23.218;2023-09-08T06:12:51;94959.98;;;17.82;98.73
43553;BME280;29153;42.696;23.218;2023-09-08T06:15:18;94955.05;;;18.06;97.89
43553;BME280;29153;42.696;23.218;2023-09-08T06:17:46;94956.52;;;18.01;95.03
43553;BME280;29153;42.696;23.218;2023-09-08T06:20:14;94960.44;;;18.15;95.36
43553;BME280;29153;42.696;23.218;2023-09-08T06:22:42;94960.03;;;18.30;93.30
43553;BME280;29153;42.696;23.218;2023-09-08T06:25:10;94964.09;;;18.39;92.86
43553;BME280;29153;42.696;23.218;2023-09-08T06:27:37;94962.77;;;18.47;93.12
43553;BME280;29153;42.696;23.218;2023-09-08T06:30:05;94982.42;;;18.65;85.91
43553;BME280;29153;42.696;23.218;2023-09-08T06:32:33;94979.19;;;18.83;83.67
43553;BME280;29153;42.696;23.218;2023-09-08T06:35:00;94983.16;;;18.85;84.00
43553;BME280;29153;42.696;23.218;2023-09-08T06:37:28;94989.19;;;18.99;78.89
43553;BME280;29153;42.696;23.218;2023-09-08T06:39:55;94990.05;;;19.15;79.50
43553;BME280;29153;42.696;23.218;2023-09-08T06:42:23;94996.77;;;19.23;77.35
43553;BME280;29153;42.696;23.218;2023-09-08T06:44:50;94993.78;;;19.42;77.62
43553;BME280;29153;42.696;23.218;2023-09-08T06:47:18;94997.43;;;19.54;75.89
43553;BME280;29153;42.696;23.218;2023-09-08T06:49:45;94993.39;;;19.63;74.87
43553;BME280;29153;42.696;23.218;2023-09-08T06:52:13;95003.09;;;19.70;73.05
43553;BME280;29153;42.696;23.218;2023-09-08T06:54:41;95006.95;;;19.84;71.63
43553;BME280;29153;42.696;23.218;2023-09-08T06:57:08;95007.24;;;19.91;69.57
43553;BME280;29153;42.696;23.218;2023-09-08T06:59:36;95005.63;;;19.98;72.06
43553;BME280;29153;42.696;23.218;2023-09-08T07:02:10;95005.38;;;20.15;70.23
43553;BME280;29153;42.696;23.218;2023-09-08T07:04:35;95007.97;;;20.17;69.39
43553;BME280;29153;42.696;23.218;2023-09-08T07:07:03;95004.55;;;20.31;68.99
43553;BME280;29153;42.696;23.218;2023-09-08T07:09:34;95013.28;;;20.43;65.56
43553;BME280;29153;42.696;23.218;2023-09-08T07:12:04;95009.83;;;20.57;63.46
43553;BME280;29153;42.696;23.218;2023-09-08T15:06:34;94779.68;;;23.81;46.34
43553;BME280;29153;42.696;23.218;2023-09-08T15:09:05;94774.90;;;23.74;46.66
43553;BME280;29153;42.696;23.218;2023-09-08T15:11:32;94778.36;;;23.75;46.27
43553;BME280;29153;42.696;23.218;2023-09-08T15:13:59;94772.80;;;23.68;47.41
43553;BME280;29153;42.696;23.218;2023-09-08T15:16:27;94778.54;;;23.66;47.05
43553;BME280;29153;42.696;23.218;2023-09-08T15:18:55;94783.88;;;23.63;46.99
43553;BME280;29153;42.696;23.218;2023-09-08T15:21:24;94780.10;;;23.57;47.46
43553;BME280;29153;42.696;23.218;2023-09-08T15:23:53;94780.13;;;23.51;47.09
43553;BME280;29153;42.696;23.218;2023-09-08T15:26:21;94780.13;;;23.51;47.19
43553;BME280;29153;42.696;23.218;2023-09-08T15:28:49;94779.87;;;23.56;47.49
43553;BME280;29153;42.696;23.218;2023-09-08T15:31:17;94787.23;;;23.50;47.80
43553;BME280;29153;42.696;23.218;2023-09-08T15:33:45;94777.09;;;23.53;48.52
43553;BME280;29153;42.696;23.218;2023-09-08T15:36:13;94780.22;;;23.55;46.18
43553;BME280;29153;42.696;23.218;2023-09-08T15:38:47;94769.79;;;23.41;46.81
43553;BME280;29153;42.696;23.218;2023-09-08T15:41:17;94775.67;;;23.37;47.02
43553;BME280;29153;42.696;23.218;2023-09-08T15:43:46;94773.53;;;23.37;48.11
43553;BME280;29153;42.696;23.218;2023-09-08T15:46:16;94767.39;;;23.30;47.89
43553;BME280;29153;42.696;23.218;2023-09-08T15:48:44;94764.63;;;23.21;49.06
43553;BME280;29153;42.696;23.218;2023-09-08T15:51:11;94763.02;;;23.10;49.31
43553;BME280;29153;42.696;23.218;2023-09-08T15:53:39;94767.79;;;23.01;49.48
43553;BME280;29153;42.696;23.218;2023-09-08T15:56:09;94768.35;;;23.00;49.19
43553;BME280;29153;42.696;23.218;2023-09-08T15:58:38;94760.72;;;22.96;48.47
43553;BME280;29153;42.696;23.218;2023-09-08T16:01:06;94765.02;;;22.91;48.95
43553;BME280;29153;42.696;23.218;2023-09-08T16:06:00;94770.09;;;22.87;48.86
43553;BME280;29153;42.696;23.218;2023-09-08T16:08:28;94762.48;;;22.77;48.64
43553;BME280;29153;42.696;23.218;2023-09-08T16:10:55;94765.97;;;22.77;49.15
43553;BME280;29153;42.696;23.218;2023-09-08T16:13:23;94766.09;;;22.68;52.12
43553;BME280;29153;42.696;23.218;2023-09-08T16:15:50;94759.02;;;22.64;50.18
43553;BME280;29153;42.696;23.218;2023-09-08T16:18:18;94765.58;;;22.57;50.49
43553;BME280;29153;42.696;23.218;2023-09-08T16:20:45;94766.92;;;22.57;49.94
43553;BME280;29153;42.696;23.218;2023-09-08T16:23:13;94759.63;;;22.51;51.18
43553;BME280;29153;42.696;23.218;2023-09-08T16:25:40;94762.36;;;22.45;51.34
43553;BME280;29153;42.696;23.218;2023-09-08T16:28:09;94756.53;;;22.37;51.96
43553;BME280;29153;42.696;23.218;2023-09-08T16:30:37;94760.13;;;22.35;51.17
43553;BME280;29153;42.696;23.218;2023-09-08T16:33:07;94762.50;;;22.31;51.99
43553;BME280;29153;42.696;23.218;2023-09-08T16:35:34;94761.97;;;22.19;53.31
43553;BME280;29153;42.696;23.218;2023-09-08T16:38:02;94763.77;;;22.09;52.34
43553;BME280;29153;42.696;23.218;2023-09-08T16:40:30;94764.69;;;22.07;52.66
43553;BME280;29153;42.696;23.218;2023-09-08T16:42:59;94765.34;;;21.92;54.33
43553;BME280;29153;42.696;23.218;2023-09-08T16:45:28;94770.84;;;21.83;53.57
43553;BME280;29153;42.696;23.218;2023-09-08T16:47:56;94768.06;;;21.73;54.39
43553;BME280;29153;42.696;23.218;2023-09-08T16:50:24;94761.42;;;21.71;54.88
43553;BME280;29153;42.696;23.218;2023-09-08T16:52:51;94768.28;;;21.68;54.17
43553;BME280;29153;42.696;23.218;2023-09-08T16:55:19;94766.92;;;21.50;55.67
43553;BME280;29153;42.696;23.218;2023-09-08T16:57:47;94768.70;;;21.34;58.40
43553;BME280;29153;42.696;23.218;2023-09-08T17:00:14;94764.87;;;21.29;59.63
43553;BME280;29153;42.696;23.218;2023-09-08T17:02:41;94774.28;;;21.23;58.29
43553;BME280;29153;42.696;23.218;2023-09-08T17:05:11;94764.39;;;21.15;59.39
43553;BME280;29153;42.696;23.218;2023-09-08T17:07:39;94772.50;;;20.94;61.00
43553;BME280;29153;42.696;23.218;2023-09-08T17:10:07;94779.72;;;20.75;63.50
43553;BME280;29153;42.696;23.218;2023-09-08T17:12:35;94775.67;;;20.69;63.20
43553;BME280;29153;42.696;23.218;2023-09-08T17:15:03;94783.91;;;20.58;63.26
43553;BME280;29153;42.696;23.218;2023-09-08T17:17:30;94779.81;;;20.46;65.33
43553;BME280;29153;42.696;23.218;2023-09-08T17:19:59;94788.52;;;20.37;64.51
43553;BME280;29153;42.696;23.218;2023-09-08T17:22:26;94786.20;;;20.27;66.89
43553;BME280;29153;42.696;23.218;2023-09-08T17:24:54;94780.59;;;20.11;68.87
43553;BME280;29153;42.696;23.218;2023-09-08T17:27:22;94793.23;;;20.05;69.37
43553;BME280;29153;42.696;23.218;2023-09-08T17:29:51;94792.12;;;19.91;70.03
43553;BME280;29153;42.696;23.218;2023-09-08T17:32:18;94794.61;;;19.81;69.54
43553;BME280;29153;42.696;23.218;2023-09-08T17:34:46;94796.89;;;19.71;70.72
43553;BME280;29153;42.696;23.218;2023-09-08T17:37:13;94800.28;;;19.59;72.35
43553;BME280;29153;42.696;23.218;2023-09-08T17:39:41;94739.80;;;19.13;72.33
43553;BME280;29153;42.696;23.218;2023-09-08T17:42:12;94802.80;;;19.55;69.10
43553;BME280;29153;42.696;23.218;2023-09-08T17:44:41;94807.17;;;19.54;70.45
43553;BME280;29153;42.696;23.218;2023-09-08T17:47:09;94812.20;;;19.55;69.31
43553;BME280;29153;42.696;23.218;2023-09-08T17:49:37;94814.61;;;19.40;71.19
43553;BME280;29153;42.696;23.218;2023-09-08T17:52:05;94809.37;;;19.29;72.12
43553;BME280;29153;42.696;23.218;2023-09-08T17:54:32;94814.26;;;19.27;72.01
43553;BME280;29153;42.696;23.218;2023-09-08T17:57:00;94815.77;;;19.22;72.32
43553;BME280;29153;42.696;23.218;2023-09-08T17:59:28;94818.53;;;19.28;73.21
43553;BME280;29153;42.696;23.218;2023-09-08T18:01:55;94818.72;;;19.14;73.90
43553;BME280;29153;42.696;23.218;2023-09-08T18:04:26;94820.36;;;19.13;73.03
43553;BME280;29153;42.696;23.218;2023-09-08T18:06:57;94818.27;;;19.12;74.41
43553;BME280;29153;42.696;23.218;2023-09-08T18:09:26;94822.92;;;19.00;75.19
43553;BME280;29153;42.696;23.218;2023-09-08T18:11:58;94822.87;;;18.94;76.48
43553;BME280;29153;42.696;23.218;2023-09-08T18:14:29;94824.27;;;18.92;77.71
43553;BME280;29153;42.696;23.218;2023-09-08T18:16:56;94826.27;;;18.80;78.76
43553;BME280;29153;42.696;23.218;2023-09-08T18:19:24;94828.41;;;18.72;79.51
43553;BME280;29153;42.696;23.218;2023-09-08T18:21:52;94830.06;;;18.53;80.73
43553;BME280;29153;42.696;23.218;2023-09-08T18:24:19;94829.84;;;18.61;78.51
43553;BME280;29153;42.696;23.218;2023-09-08T18:26:51;94833.30;;;18.53;80.41
43553;BME280;29153;42.696;23.218;2023-09-08T18:29:20;94831.05;;;18.38;81.31
43553;BME280;29153;42.696;23.218;2023-09-08T18:31:49;94831.05;;;18.29;82.17
43553;BME280;29153;42.696;23.218;2023-09-08T18:34:17;94828.27;;;18.23;82.54
43553;BME280;29153;42.696;23.218;2023-09-08T18:36:44;94824.62;;;18.10;83.29
43553;BME280;29153;42.696;23.218;2023-09-08T18:39:13;94832.32;;;17.95;84.15
43553;BME280;29153;42.696;23.218;2023-09-08T18:41:41;94833.01;;;17.89;84.51
43553;BME280;29153;42.696;23.218;2023-09-08T18:44:09;94828.14;;;17.91;84.76
43553;BME280;29153;42.696;23.218;2023-09-08T18:46:37;94822.75;;;17.83;84.62
43553;BME280;29153;42.696;23.218;2023-09-08T18:49:05;94829.42;;;17.74;85.38
43553;BME280;29153;42.696;23.218;2023-09-08T18:51:34;94742.59;;;17.16;85.77
43553;BME280;29153;42.696;23.218;2023-09-08T18:54:04;94828.49;;;17.59;86.67
43553;BME280;29153;42.696;23.218;2023-09-08T18:56:31;94824.32;;;17.44;87.13
43553;BME280;29153;42.696;23.218;2023-09-08T18:59:03;94833.78;;;17.30;87.72
43553;BME280;29153;42.696;23.218;2023-09-08T19:01:37;94829.89;;;17.25;87.63
43553;BME280;29153;42.696;23.218;2023-09-08T19:04:05;94828.26;;;17.16;88.37
43553;BME280;29153;42.696;23.218;2023-09-08T19:06:32;94823.80;;;17.03;88.95
43553;BME280;29153;42.696;23.218;2023-09-08T19:09:02;94822.03;;;16.87;89.71
43553;BME280;29153;42.696;23.218;2023-09-08T19:11:29;94827.28;;;16.81;89.93
43553;BME280;29153;42.696;23.218;2023-09-08T19:14:00;94824.77;;;16.73;90.45
43553;BME280;29153;42.696;23.218;2023-09-08T19:16:29;94831.09;;;16.66;90.93
43553;BME280;29153;42.696;23.218;2023-09-08T19:18:57;94825.57;;;16.63;91.13
43553;BME280;29153;42.696;23.218;2023-09-08T19:21:25;94826.81;;;16.54;91.21
43553;BME280;29153;42.696;23.218;2023-09-08T19:23:52;94826.23;;;16.44;91.62
43553;BME280;29153;42.696;23.218;2023-09-08T19:26:21;94831.91;;;16.42;92.27
43553;BME280;29153;42.696;23.218;2023-09-08T19:28:50;94828.61;;;16.34;92.57
43553;BME280;29153;42.696;23.218;2023-09-08T19:31:18;94827.58;;;16.08;94.04
43553;BME280;29153;42.696;23.218;2023-09-08T19:33:46;94832.17;;;16.05;94.04
43553;BME280;29153;42.696;23.218;2023-09-08T19:36:15;94825.37;;;15.99;94.60
43553;BME280;29153;42.696;23.218;2023-09-08T19:38:44;94831.96;;;15.90;95.26
43553;BME280;29153;42.696;23.218;2023-09-08T19:41:13;94825.53;;;15.91;94.81
43553;BME280;29153;42.696;23.218;2023-09-08T19:43:41;94828.11;;;15.82;95.28
43553;BME280;29153;42.696;23.218;2023-09-08T19:46:08;94830.25;;;15.69;96.07
43553;BME280;29153;42.696;23.218;2023-09-08T19:48:37;94842.20;;;15.72;96.11
43553;BME280;29153;42.696;23.218;2023-09-08T19:51:05;94839.72;;;15.75;95.83
43553;BME280;29153;42.696;23.218;2023-09-08T19:53:33;94837.50;;;15.66;96.43
43553;BME280;29153;42.696;23.218;2023-09-08T19:56:00;94834.89;;;15.64;96.92
43553;BME280;29153;42.696;23.218;2023-09-08T19:58:29;94833.30;;;15.63;96.68
43553;BME280;29153;42.696;23.218;2023-09-08T20:01:05;94827.92;;;15.52;97.55
43553;BME280;29153;42.696;23.218;2023-09-08T20:03:33;94832.23;;;15.47;98.03
43553;BME280;29153;42.696;23.218;2023-09-08T20:06:01;94831.53;;;15.42;98.15
43553;BME280;29153;42.696;23.218;2023-09-08T20:08:29;94837.48;;;15.39;98.15
43553;BME280;29153;42.696;23.218;2023-09-08T20:10:56;94846.65;;;15.33;98.37
43553;BME280;29153;42.696;23.218;2023-09-08T20:13:26;94839.61;;;15.23;98.99
43553;BME280;29153;42.696;23.218;2023-09-08T20:16:04;94839.41;;;15.20;99.32
43553;BME280;29153;42.696;23.218;2023-09-08T20:18:35;94845.86;;;15.19;99.52
43553;BME280;29153;42.696;23.218;2023-09-08T20:21:03;94843.95;;;15.19;99.36
43553;BME280;29153;42.696;23.218;2023-09-08T20:23:32;94840.60;;;15.14;99.89
43553;BME280;29153;42.696;23.218;2023-09-08T20:26:02;94838.16;;;15.15;99.90
43553;BME280;29153;42.696;23.218;2023-09-08T20:28:29;94838.69;;;15.00;100.00
43553;BME280;29153;42.696;23.218;2023-09-08T20:30:58;94840.72;;;14.90;100.00
43553;BME280;29153;42.696;23.218;2023-09-08T20:33:25;94837.58;;;14.88;100.00
43553;BME280;29153;42.696;23.218;2023-09-08T20:35:53;94840.78;;;14.87;100.00
43553;BME280;29153;42.696;23.218;2023-09-08T20:38:21;94840.24;;;14.88;100.00
43553;BME280;29153;42.696;23.218;2023-09-08T20:40:50;94840.24;;;14.88;100.00
43553;BME280;29153;42.696;23.218;2023-09-08T20:43:18;94847.73;;;14.86;100.00
43553;BME280;29153;42.696;23.218;2023-09-08T20:45:58;94845.47;;;14.77;100.00
43553;BME280;29153;42.696;23.218;2023-09-08T20:48:28;94848.73;;;14.74;100.00
43553;BME280;29153;42.696;23.218;2023-09-08T20:51:08;94853.39;;;14.66;100.00
43553;BME280;29153;42.696;23.218;2023-09-08T20:53:38;94850.05;;;14.57;100.00
43553;BME280;29153;42.696;23.218;2023-09-08T20:56:07;94845.98;;;14.63;100.00
43553;BME280;29153;42.696;23.218;2023-09-08T20:58:37;94845.98;;;14.63;100.00
43553;BME280;29153;42.696;23.218;2023-09-08T21:34:58;94853.54;;;15.53;100.00
43553;BME280;29153;42.696;23.218;2023-09-08T21:37:26;94852.69;;;15.55;100.00
